O69

Petaluma Municipal Airport

Petaluma, California, USA
METAR KO69 202215Z AUTO 24008G14KT 10SM CLR 32/13 A2988 RMK A01
Observed Flight Rules
Jul-20 @ 22:15 UTC (7 minutes ago) Visual Flight Rules
Wind Visibility Clouds
240° at 8 knots
 Gusting to 14 knots
10 miles
  • Clear skies
Temperatures Readings
Current 32°C / 90°F
Dewpoint 13°C / 55°F
Humidity 31%
Altimeter 29.88" Hg
Pressure 1012 hPa
Elevation 28
METAR KO69 202215Z AUTO 24008G14KT 10SM CLR 32/13 A2988 RMK A01
Observed Flight Rules
Jul-20 @ 22:15 UTC
(7 minutes ago)
VFR
Wind Visibility
240° at 8 knots
 Gusting to 14 knots
10 miles
Clouds
  • Clear skies
Temperature Dewpoint
32°C / 90°F 13°C / 55°F
Humidity Altimeter Pressure
31% 29.88" Hg 1012 hPa